createdAt,value
2019-05-20T00:02:38.033Z,18.50
2019-05-20T00:07:40.524Z,18.47
2019-05-20T00:12:43.042Z,18.46
2019-05-20T00:17:45.483Z,18.49
2019-05-20T00:22:47.958Z,18.41
2019-05-20T00:27:50.463Z,18.38
2019-05-20T00:32:52.955Z,18.42
2019-05-20T00:37:55.444Z,18.41
2019-05-20T00:42:57.920Z,18.50
2019-05-20T00:48:00.396Z,18.49
2019-05-20T00:53:02.876Z,18.34
2019-05-20T00:58:05.364Z,18.21
2019-05-20T01:03:07.871Z,17.86
2019-05-20T01:08:10.457Z,17.73
2019-05-20T01:13:12.948Z,17.46
2019-05-20T01:18:15.430Z,17.33
2019-05-20T01:23:17.904Z,17.25
2019-05-20T01:28:20.376Z,17.10
2019-05-20T01:33:22.866Z,16.95
2019-05-20T01:38:25.349Z,16.83
2019-05-20T01:43:27.833Z,16.80
2019-05-20T01:48:30.329Z,16.69
2019-05-20T01:53:32.817Z,16.67
2019-05-20T01:58:35.353Z,16.52
2019-05-20T02:03:37.768Z,16.35
2019-05-20T02:08:40.238Z,16.33
2019-05-20T02:13:54.708Z,16.36
2019-05-20T02:18:57.211Z,16.13
2019-05-20T02:23:59.687Z,16.19
2019-05-20T02:29:02.245Z,16.12
2019-05-20T02:34:04.678Z,15.98
2019-05-20T02:39:07.158Z,15.98
2019-05-20T02:44:09.642Z,15.90
2019-05-20T02:49:12.194Z,15.98
2019-05-20T02:54:14.638Z,15.89
2019-05-20T02:59:17.148Z,15.94
2019-05-20T03:04:19.611Z,16.11
2019-05-20T03:09:22.101Z,16.11
2019-05-20T03:14:24.678Z,16.11
2019-05-20T03:19:27.175Z,15.98
2019-05-20T03:24:29.656Z,15.88
2019-05-20T03:29:32.156Z,15.88
2019-05-20T03:34:50.561Z,15.78
2019-05-20T03:39:37.242Z,15.54
2019-05-20T03:44:39.726Z,15.60
2019-05-20T03:49:42.216Z,15.49
2019-05-20T03:54:44.728Z,15.50
2019-05-20T03:59:47.251Z,15.52
2019-05-20T04:05:01.253Z,15.44
2019-05-20T04:09:52.218Z,15.79
2019-05-20T04:14:54.705Z,15.72
2019-05-20T04:19:57.186Z,15.60
2019-05-20T04:24:59.684Z,15.78
2019-05-20T04:30:02.168Z,15.82
2019-05-20T04:35:20.576Z,16.01
2019-05-20T04:40:07.141Z,16.17
2019-05-20T04:45:09.637Z,16.28
2019-05-20T04:50:12.135Z,16.66
2019-05-20T04:55:14.632Z,16.85
2019-05-20T05:00:17.131Z,17.16
2019-05-20T05:05:19.619Z,17.61
2019-05-20T05:10:22.093Z,17.85
2019-05-20T05:15:24.587Z,18.34
2019-05-20T05:20:27.074Z,18.54
2019-05-20T05:25:29.611Z,18.70
2019-05-20T05:30:32.327Z,18.88
2019-05-20T05:35:34.821Z,18.79
2019-05-20T05:40:37.300Z,18.62
2019-05-20T05:45:39.840Z,18.49
2019-05-20T05:50:42.428Z,18.34
2019-05-20T05:55:44.927Z,18.27
2019-05-20T06:00:47.420Z,18.01
2019-05-20T06:05:49.907Z,18.11
2019-05-20T06:10:52.405Z,18.11
2019-05-20T06:15:54.902Z,18.23
2019-05-20T06:20:57.397Z,18.32
2019-05-20T06:26:00.057Z,18.41
2019-05-20T06:31:02.489Z,18.58
2019-05-20T06:36:05.000Z,18.77
2019-05-20T06:41:07.521Z,19.26
2019-05-20T06:46:10.071Z,19.66
2019-05-20T06:51:12.513Z,20.12
2019-05-20T06:56:15.012Z,20.60
2019-05-20T07:01:17.647Z,21.78
2019-05-20T07:06:20.158Z,22.86
2019-05-20T07:11:22.677Z,23.40
2019-05-20T07:16:25.171Z,23.05
2019-05-20T07:21:27.676Z,22.18
2019-05-20T07:26:30.190Z,21.32
2019-05-20T07:31:32.676Z,20.49
2019-05-20T07:36:35.168Z,20.01
2019-05-20T07:41:41.161Z,20.15
2019-05-20T07:46:40.161Z,20.33
2019-05-20T07:51:42.662Z,20.72
2019-05-20T07:56:45.196Z,20.67
2019-05-20T08:01:47.691Z,20.69
2019-05-20T08:06:50.203Z,21.14
2019-05-20T08:11:52.681Z,22.03
2019-05-20T08:16:55.190Z,22.72
2019-05-20T08:21:57.672Z,23.22
2019-05-20T08:27:00.199Z,23.29
2019-05-20T08:32:02.695Z,24.18
2019-05-20T08:37:05.173Z,29.04
2019-05-20T08:42:07.659Z,33.32
2019-05-20T08:47:10.158Z,32.36
2019-05-20T08:52:12.819Z,27.35
2019-05-20T08:57:15.222Z,26.27
2019-05-20T09:02:17.719Z,24.76
2019-05-20T09:07:20.223Z,24.93
2019-05-20T09:12:22.699Z,25.15
2019-05-20T09:17:25.206Z,24.37
2019-05-20T09:22:27.718Z,24.36
2019-05-20T09:27:30.197Z,23.62
2019-05-20T09:32:32.691Z,23.16
2019-05-20T09:37:35.175Z,22.97
2019-05-20T09:42:40.816Z,22.42
2019-05-20T09:47:40.154Z,22.47
2019-05-20T09:52:42.640Z,22.42
2019-05-20T09:57:45.129Z,22.51
2019-05-20T10:02:47.620Z,22.77
2019-05-20T10:07:50.126Z,23.04
2019-05-20T10:12:52.613Z,23.19
2019-05-20T10:17:55.092Z,22.96
2019-05-20T10:22:57.611Z,22.68
2019-05-20T10:28:00.073Z,22.56
2019-05-20T10:33:02.574Z,22.21
2019-05-20T10:38:05.077Z,21.80
2019-05-20T10:43:07.574Z,21.67
2019-05-20T10:48:10.064Z,21.70
2019-05-20T10:53:12.550Z,21.55
2019-05-20T10:58:15.110Z,21.80
2019-05-20T11:03:17.594Z,21.69
2019-05-20T11:08:20.127Z,21.43
2019-05-20T11:13:22.629Z,21.10
2019-05-20T11:18:25.122Z,20.92
2019-05-20T11:23:27.711Z,20.62
2019-05-20T11:28:30.092Z,20.61
2019-05-20T11:33:32.601Z,20.60
2019-05-20T11:38:35.096Z,20.43
2019-05-20T11:43:37.589Z,20.06
2019-05-20T11:48:40.134Z,20.15
2019-05-20T11:53:42.616Z,20.56
2019-05-20T11:58:45.118Z,20.97
2019-05-20T12:03:47.620Z,21.71
2019-05-20T12:08:52.467Z,22.58
2019-05-20T12:13:52.756Z,23.62
2019-05-20T12:18:55.251Z,24.33
2019-05-20T12:23:57.748Z,25.32
2019-05-20T12:29:00.244Z,25.57
2019-05-20T12:34:02.748Z,25.65
2019-05-20T12:39:05.250Z,25.83
2019-05-20T12:44:12.708Z,25.43
2019-05-20T12:49:10.428Z,25.54
2019-05-20T12:54:12.740Z,24.99
2019-05-20T12:59:15.278Z,24.61
2019-05-20T13:04:17.771Z,24.16
2019-05-20T13:09:20.269Z,24.20
2019-05-20T13:14:22.752Z,24.36
2019-05-20T13:19:25.293Z,24.94
2019-05-20T13:24:27.796Z,25.74
2019-05-20T13:29:30.286Z,25.74
2019-05-20T13:34:32.766Z,25.35
2019-05-20T13:39:35.317Z,25.06
2019-05-20T13:44:37.792Z,24.93
2019-05-20T13:49:40.309Z,24.58
2019-05-20T13:54:42.783Z,24.35
2019-05-20T13:59:45.275Z,24.13
2019-05-20T14:04:47.759Z,24.41
2019-05-20T14:09:50.258Z,24.63
2019-05-20T14:14:52.752Z,24.34
2019-05-20T14:19:55.256Z,24.45
2019-05-20T14:24:57.852Z,24.60
2019-05-20T14:30:00.275Z,24.35
2019-05-20T14:35:02.788Z,24.24
2019-05-20T14:40:05.267Z,23.60
2019-05-20T14:45:07.767Z,23.02
2019-05-20T14:50:10.284Z,22.75
2019-05-20T14:55:12.763Z,22.08
2019-05-20T15:00:15.292Z,21.37
2019-05-20T15:05:17.914Z,20.67
2019-05-20T15:10:20.372Z,20.22
2019-05-20T15:15:22.882Z,19.80
2019-05-20T15:20:25.395Z,19.76
2019-05-20T15:25:27.888Z,19.64
2019-05-20T15:30:30.384Z,19.68
2019-05-20T15:35:32.888Z,19.73
2019-05-20T15:40:35.408Z,19.72
2019-05-20T15:45:37.895Z,19.57
2019-05-20T15:50:40.396Z,19.52
2019-05-20T15:55:42.883Z,19.58
2019-05-20T16:00:45.372Z,19.51
2019-05-20T16:05:47.869Z,19.49
2019-05-20T16:10:50.374Z,19.58
2019-05-20T16:15:52.899Z,19.42
2019-05-20T16:20:55.396Z,19.31
2019-05-20T16:25:57.885Z,19.11
2019-05-20T16:31:00.382Z,18.83
2019-05-20T16:36:02.957Z,18.42
2019-05-20T16:41:05.459Z,18.58
2019-05-20T16:46:08.042Z,18.70
2019-05-20T16:51:10.540Z,18.65
2019-05-20T16:56:13.014Z,18.60
2019-05-20T17:01:15.535Z,18.53
2019-05-20T17:06:18.010Z,18.58
2019-05-20T17:11:20.545Z,18.60
2019-05-20T17:16:23.027Z,18.50
2019-05-20T17:21:25.533Z,18.48
2019-05-20T17:26:28.020Z,18.54
2019-05-20T17:31:31.008Z,18.54
2019-05-20T17:36:33.050Z,18.47
2019-05-20T17:41:35.614Z,18.46
2019-05-20T17:46:38.129Z,18.43
2019-05-20T17:51:43.315Z,18.40
2019-05-20T17:56:43.384Z,18.32
2019-05-20T18:01:45.926Z,18.24
2019-05-20T18:06:48.453Z,18.14
2019-05-20T18:11:50.961Z,18.09
2019-05-20T18:16:53.474Z,18.04
2019-05-20T18:21:55.977Z,17.98
2019-05-20T18:26:58.481Z,17.89
2019-05-20T18:32:00.977Z,17.87
2019-05-20T18:37:03.490Z,17.89
2019-05-20T18:42:05.989Z,17.96
2019-05-20T18:47:08.479Z,17.92
2019-05-20T18:52:10.991Z,18.02
2019-05-20T18:57:13.515Z,17.87
2019-05-20T19:02:15.990Z,17.83
2019-05-20T19:07:18.488Z,17.87
2019-05-20T19:12:20.977Z,17.81
2019-05-20T19:17:23.622Z,17.80
2019-05-20T19:22:26.043Z,17.84
2019-05-20T19:27:28.542Z,17.81
2019-05-20T19:32:31.044Z,17.85
2019-05-20T19:37:33.553Z,17.86
2019-05-20T19:42:36.042Z,17.79
2019-05-20T19:47:38.530Z,17.71
2019-05-20T19:52:41.040Z,17.73
2019-05-20T19:57:43.531Z,17.62
2019-05-20T20:02:46.011Z,17.47
2019-05-20T20:07:48.591Z,17.38
2019-05-20T20:12:51.157Z,17.22
2019-05-20T20:17:53.616Z,17.17
2019-05-20T20:22:56.107Z,17.02
2019-05-20T20:27:58.609Z,17.08
2019-05-20T20:33:01.100Z,16.94
2019-05-20T20:38:03.612Z,17.03
2019-05-20T20:43:06.115Z,17.03
2019-05-20T20:48:08.603Z,17.11
2019-05-20T20:53:11.105Z,17.09
2019-05-20T20:58:14.503Z,17.09
2019-05-20T21:03:17.039Z,17.05
2019-05-20T21:08:19.542Z,17.02
2019-05-20T21:13:22.037Z,16.97
2019-05-20T21:18:24.569Z,16.92
2019-05-20T21:23:27.056Z,16.88
2019-05-20T21:28:29.540Z,16.94
2019-05-20T21:33:32.040Z,16.93
2019-05-20T21:38:34.531Z,16.92
2019-05-20T21:43:37.041Z,16.87
2019-05-20T21:48:39.535Z,16.93
2019-05-20T21:53:42.049Z,16.86
2019-05-20T21:58:44.524Z,16.90
2019-05-20T22:03:47.012Z,16.87
2019-05-20T22:08:49.517Z,16.86
2019-05-20T22:13:52.084Z,16.88
2019-05-20T22:18:54.568Z,16.91
2019-05-20T22:23:57.064Z,16.95
2019-05-20T22:28:59.531Z,16.96
2019-05-20T22:34:02.032Z,16.98
2019-05-20T22:39:04.527Z,16.92
2019-05-20T22:44:07.019Z,16.88
2019-05-20T22:49:09.523Z,16.85
2019-05-20T22:54:12.077Z,16.84
2019-05-20T22:59:14.531Z,16.84
2019-05-20T23:04:17.024Z,16.86
2019-05-20T23:09:19.512Z,16.81
2019-05-20T23:14:21.988Z,16.68
2019-05-20T23:19:24.503Z,16.62
2019-05-20T23:24:26.972Z,16.63
2019-05-20T23:29:29.452Z,16.65
2019-05-20T23:34:31.944Z,16.68
2019-05-20T23:39:34.440Z,16.72
2019-05-20T23:44:36.921Z,16.77
2019-05-20T23:49:39.409Z,16.78
2019-05-20T23:54:41.910Z,16.75
2019-05-20T23:59:44.390Z,16.82
